sensor_id;sensor_type;location;lat;lon;timestamp;P1;durP1;ratioP1;P2;durP2;ratioP2
4375;SDS011;2202;50.866;12.750;2023-02-15T00:02:00;22.40;;;14.37;;
4375;SDS011;2202;50.866;12.750;2023-02-15T00:04:29;22.23;;;14.90;;
4375;SDS011;2202;50.866;12.750;2023-02-15T00:07:10;19.27;;;13.77;;
4375;SDS011;2202;50.866;12.750;2023-02-15T00:09:37;19.77;;;13.13;;
4375;SDS011;2202;50.866;12.750;2023-02-15T00:12:03;22.43;;;13.47;;
4375;SDS011;2202;50.866;12.750;2023-02-15T00:14:30;24.97;;;13.70;;
4375;SDS011;2202;50.866;12.750;2023-02-15T00:16:57;25.10;;;14.20;;
4375;SDS011;2202;50.866;12.750;2023-02-15T00:19:24;25.77;;;13.47;;
4375;SDS011;2202;50.866;12.750;2023-02-15T00:21:53;24.97;;;14.33;;
4375;SDS011;2202;50.866;12.750;2023-02-15T00:24:20;22.07;;;13.43;;
4375;SDS011;2202;50.866;12.750;2023-02-15T00:26:47;20.43;;;13.47;;
4375;SDS011;2202;50.866;12.750;2023-02-15T00:29:15;20.50;;;13.00;;
4375;SDS011;2202;50.866;12.750;2023-02-15T00:31:44;19.23;;;12.27;;
4375;SDS011;2202;50.866;12.750;2023-02-15T00:34:11;19.93;;;13.37;;
4375;SDS011;2202;50.866;12.750;2023-02-15T00:36:40;22.63;;;12.63;;
4375;SDS011;2202;50.866;12.750;2023-02-15T00:39:09;22.37;;;12.23;;
4375;SDS011;2202;50.866;12.750;2023-02-15T00:41:36;19.50;;;12.17;;
4375;SDS011;2202;50.866;12.750;2023-02-15T00:44:03;17.50;;;11.80;;
4375;SDS011;2202;50.866;12.750;2023-02-15T00:46:31;19.07;;;11.97;;
4375;SDS011;2202;50.866;12.750;2023-02-15T00:48:58;19.20;;;12.47;;
4375;SDS011;2202;50.866;12.750;2023-02-15T00:51:25;20.20;;;12.30;;
4375;SDS011;2202;50.866;12.750;2023-02-15T00:53:52;19.37;;;11.37;;
4375;SDS011;2202;50.866;12.750;2023-02-15T00:56:20;17.97;;;11.77;;
4375;SDS011;2202;50.866;12.750;2023-02-15T00:58:48;20.87;;;11.83;;
4375;SDS011;2202;50.866;12.750;2023-02-15T01:01:15;23.23;;;13.93;;
4375;SDS011;2202;50.866;12.750;2023-02-15T01:03:43;21.10;;;13.30;;
4375;SDS011;2202;50.866;12.750;2023-02-15T01:06:11;22.23;;;12.63;;
4375;SDS011;2202;50.866;12.750;2023-02-15T01:08:39;22.97;;;12.73;;
4375;SDS011;2202;50.866;12.750;2023-02-15T01:11:07;16.63;;;12.50;;
4375;SDS011;2202;50.866;12.750;2023-02-15T01:13:37;18.50;;;11.83;;
4375;SDS011;2202;50.866;12.750;2023-02-15T01:16:07;21.20;;;12.57;;
4375;SDS011;2202;50.866;12.750;2023-02-15T01:18:35;19.73;;;11.30;;
4375;SDS011;2202;50.866;12.750;2023-02-15T01:21:08;16.00;;;11.63;;
4375;SDS011;2202;50.866;12.750;2023-02-15T01:23:35;20.47;;;12.03;;
4375;SDS011;2202;50.866;12.750;2023-02-15T01:26:02;20.93;;;13.50;;
4375;SDS011;2202;50.866;12.750;2023-02-15T01:28:30;18.07;;;12.27;;
4375;SDS011;2202;50.866;12.750;2023-02-15T01:30:59;19.80;;;12.50;;
4375;SDS011;2202;50.866;12.750;2023-02-15T01:33:30;16.47;;;11.60;;
4375;SDS011;2202;50.866;12.750;2023-02-15T01:35:57;17.87;;;12.27;;
4375;SDS011;2202;50.866;12.750;2023-02-15T01:38:24;24.17;;;11.90;;
4375;SDS011;2202;50.866;12.750;2023-02-15T01:40:51;21.73;;;13.07;;
4375;SDS011;2202;50.866;12.750;2023-02-15T01:43:18;22.20;;;15.13;;
4375;SDS011;2202;50.866;12.750;2023-02-15T01:45:45;33.43;;;20.37;;
4375;SDS011;2202;50.866;12.750;2023-02-15T01:48:19;23.37;;;15.73;;
4375;SDS011;2202;50.866;12.750;2023-02-15T01:50:49;17.27;;;12.03;;
4375;SDS011;2202;50.866;12.750;2023-02-15T01:53:19;18.20;;;12.50;;
4375;SDS011;2202;50.866;12.750;2023-02-15T01:55:50;25.87;;;12.17;;
4375;SDS011;2202;50.866;12.750;2023-02-15T01:58:21;20.97;;;11.67;;
4375;SDS011;2202;50.866;12.750;2023-02-15T02:00:51;17.57;;;11.83;;
4375;SDS011;2202;50.866;12.750;2023-02-15T02:03:20;17.97;;;10.73;;
4375;SDS011;2202;50.866;12.750;2023-02-15T02:05:56;23.10;;;14.03;;
4375;SDS011;2202;50.866;12.750;2023-02-15T02:08:23;22.17;;;12.80;;
4375;SDS011;2202;50.866;12.750;2023-02-15T02:10:50;20.27;;;11.60;;
4375;SDS011;2202;50.866;12.750;2023-02-15T02:13:17;16.87;;;11.33;;
4375;SDS011;2202;50.866;12.750;2023-02-15T02:15:53;19.13;;;10.90;;
4375;SDS011;2202;50.866;12.750;2023-02-15T02:18:31;19.40;;;11.97;;
4375;SDS011;2202;50.866;12.750;2023-02-15T02:24:09;24.17;;;13.43;;
4375;SDS011;2202;50.866;12.750;2023-02-15T02:33:07;16.50;;;10.60;;
4375;SDS011;2202;50.866;12.750;2023-02-15T02:35:44;18.33;;;11.90;;
4375;SDS011;2202;50.866;12.750;2023-02-15T02:38:23;20.37;;;10.90;;
4375;SDS011;2202;50.866;12.750;2023-02-15T02:40:56;17.07;;;10.50;;
4375;SDS011;2202;50.866;12.750;2023-02-15T02:43:33;19.40;;;11.37;;
4375;SDS011;2202;50.866;12.750;2023-02-15T02:46:05;23.47;;;12.97;;
4375;SDS011;2202;50.866;12.750;2023-02-15T02:48:39;25.13;;;14.70;;
4375;SDS011;2202;50.866;12.750;2023-02-15T02:51:06;25.03;;;14.67;;
4375;SDS011;2202;50.866;12.750;2023-02-15T02:53:33;23.10;;;12.43;;
4375;SDS011;2202;50.866;12.750;2023-02-15T02:56:03;18.03;;;11.70;;
4375;SDS011;2202;50.866;12.750;2023-02-15T02:58:36;27.83;;;12.40;;
4375;SDS011;2202;50.866;12.750;2023-02-15T03:01:08;19.93;;;11.50;;
4375;SDS011;2202;50.866;12.750;2023-02-15T03:03:41;18.80;;;11.00;;
4375;SDS011;2202;50.866;12.750;2023-02-15T03:06:11;18.53;;;10.73;;
4375;SDS011;2202;50.866;12.750;2023-02-15T03:08:45;14.70;;;9.33;;
4375;SDS011;2202;50.866;12.750;2023-02-15T03:11:14;15.47;;;9.37;;
4375;SDS011;2202;50.866;12.750;2023-02-15T03:13:41;16.53;;;10.70;;
4375;SDS011;2202;50.866;12.750;2023-02-15T03:16:11;15.20;;;10.10;;
4375;SDS011;2202;50.866;12.750;2023-02-15T03:18:56;18.17;;;11.07;;
4375;SDS011;2202;50.866;12.750;2023-02-15T03:21:29;20.50;;;12.10;;
4375;SDS011;2202;50.866;12.750;2023-02-15T03:24:00;17.73;;;10.50;;
4375;SDS011;2202;50.866;12.750;2023-02-15T03:26:33;15.27;;;10.00;;
4375;SDS011;2202;50.866;12.750;2023-02-15T03:29:02;16.57;;;9.30;;
4375;SDS011;2202;50.866;12.750;2023-02-15T03:31:32;15.27;;;10.30;;
4375;SDS011;2202;50.866;12.750;2023-02-15T03:34:04;15.27;;;8.83;;
4375;SDS011;2202;50.866;12.750;2023-02-15T03:36:36;13.33;;;9.83;;
4375;SDS011;2202;50.866;12.750;2023-02-15T03:39:11;15.60;;;9.80;;
4375;SDS011;2202;50.866;12.750;2023-02-15T03:41:45;15.07;;;10.27;;
4375;SDS011;2202;50.866;12.750;2023-02-15T03:44:17;16.43;;;10.03;;
4375;SDS011;2202;50.866;12.750;2023-02-15T03:46:50;13.27;;;8.77;;
4375;SDS011;2202;50.866;12.750;2023-02-15T03:49:24;14.70;;;8.70;;
4375;SDS011;2202;50.866;12.750;2023-02-15T03:51:55;14.90;;;9.30;;
4375;SDS011;2202;50.866;12.750;2023-02-15T03:54:24;36.90;;;16.80;;
4375;SDS011;2202;50.866;12.750;2023-02-15T03:57:09;36.90;;;18.30;;
4375;SDS011;2202;50.866;12.750;2023-02-15T03:59:56;29.90;;;16.43;;
4375;SDS011;2202;50.866;12.750;2023-02-15T04:02:44;34.00;;;17.63;;
4375;SDS011;2202;50.866;12.750;2023-02-15T04:05:26;24.00;;;13.40;;
4375;SDS011;2202;50.866;12.750;2023-02-15T04:07:52;25.33;;;14.07;;
4375;SDS011;2202;50.866;12.750;2023-02-15T04:10:19;20.37;;;12.67;;
4375;SDS011;2202;50.866;12.750;2023-02-15T04:13:03;21.23;;;12.50;;
4375;SDS011;2202;50.866;12.750;2023-02-15T04:15:30;20.03;;;10.40;;
4375;SDS011;2202;50.866;12.750;2023-02-15T04:18:14;15.47;;;10.87;;
4375;SDS011;2202;50.866;12.750;2023-02-15T04:20:44;16.87;;;10.93;;
4375;SDS011;2202;50.866;12.750;2023-02-15T04:23:28;18.73;;;11.60;;
4375;SDS011;2202;50.866;12.750;2023-02-15T04:26:13;18.80;;;11.47;;
4375;SDS011;2202;50.866;12.750;2023-02-15T04:28:40;17.77;;;10.30;;
4375;SDS011;2202;50.866;12.750;2023-02-15T04:31:07;17.10;;;9.43;;
4375;SDS011;2202;50.866;12.750;2023-02-15T04:33:33;18.33;;;9.53;;
4375;SDS011;2202;50.866;12.750;2023-02-15T04:36:03;15.53;;;9.23;;
4375;SDS011;2202;50.866;12.750;2023-02-15T04:38:31;13.27;;;9.10;;
4375;SDS011;2202;50.866;12.750;2023-02-15T04:40:57;17.30;;;9.57;;
4375;SDS011;2202;50.866;12.750;2023-02-15T04:43:24;16.43;;;9.60;;
4375;SDS011;2202;50.866;12.750;2023-02-15T04:45:51;14.00;;;9.67;;
4375;SDS011;2202;50.866;12.750;2023-02-15T04:48:18;16.20;;;10.07;;
4375;SDS011;2202;50.866;12.750;2023-02-15T04:50:45;15.03;;;9.20;;
4375;SDS011;2202;50.866;12.750;2023-02-15T04:53:13;15.03;;;9.73;;
4375;SDS011;2202;50.866;12.750;2023-02-15T04:55:42;16.57;;;11.00;;
4375;SDS011;2202;50.866;12.750;2023-02-15T04:58:09;20.80;;;12.47;;
4375;SDS011;2202;50.866;12.750;2023-02-15T05:00:36;18.90;;;10.07;;
4375;SDS011;2202;50.866;12.750;2023-02-15T05:03:03;17.50;;;9.17;;
4375;SDS011;2202;50.866;12.750;2023-02-15T05:05:29;12.43;;;8.97;;
4375;SDS011;2202;50.866;12.750;2023-02-15T05:07:56;15.43;;;9.43;;
4375;SDS011;2202;50.866;12.750;2023-02-15T05:10:24;17.10;;;10.13;;
4375;SDS011;2202;50.866;12.750;2023-02-15T05:12:51;14.40;;;9.97;;
4375;SDS011;2202;50.866;12.750;2023-02-15T05:15:18;13.53;;;9.10;;
4375;SDS011;2202;50.866;12.750;2023-02-15T05:17:45;13.90;;;9.33;;
4375;SDS011;2202;50.866;12.750;2023-02-15T05:20:12;13.77;;;9.30;;
4375;SDS011;2202;50.866;12.750;2023-02-15T05:22:39;18.50;;;11.07;;
4375;SDS011;2202;50.866;12.750;2023-02-15T05:25:07;14.53;;;9.57;;
4375;SDS011;2202;50.866;12.750;2023-02-15T05:27:53;15.33;;;9.23;;
4375;SDS011;2202;50.866;12.750;2023-02-15T05:30:37;13.17;;;9.57;;
4375;SDS011;2202;50.866;12.750;2023-02-15T05:33:05;16.70;;;9.63;;
4375;SDS011;2202;50.866;12.750;2023-02-15T05:35:32;16.23;;;9.60;;
4375;SDS011;2202;50.866;12.750;2023-02-15T05:37:59;15.17;;;9.90;;
4375;SDS011;2202;50.866;12.750;2023-02-15T05:40:26;16.10;;;9.73;;
4375;SDS011;2202;50.866;12.750;2023-02-15T05:42:55;16.33;;;8.97;;
4375;SDS011;2202;50.866;12.750;2023-02-15T05:45:22;15.60;;;10.40;;
4375;SDS011;2202;50.866;12.750;2023-02-15T05:47:49;20.13;;;10.97;;
4375;SDS011;2202;50.866;12.750;2023-02-15T05:50:16;31.57;;;16.73;;
4375;SDS011;2202;50.866;12.750;2023-02-15T05:52:43;43.40;;;18.63;;
4375;SDS011;2202;50.866;12.750;2023-02-15T05:55:10;31.03;;;17.43;;
4375;SDS011;2202;50.866;12.750;2023-02-15T05:57:37;24.10;;;14.40;;
4375;SDS011;2202;50.866;12.750;2023-02-15T06:00:06;22.17;;;13.30;;
4375;SDS011;2202;50.866;12.750;2023-02-15T06:02:34;19.13;;;13.70;;
4375;SDS011;2202;50.866;12.750;2023-02-15T06:05:02;16.13;;;10.53;;
4375;SDS011;2202;50.866;12.750;2023-02-15T06:07:29;19.07;;;11.90;;
4375;SDS011;2202;50.866;12.750;2023-02-15T06:09:56;18.10;;;11.13;;
4375;SDS011;2202;50.866;12.750;2023-02-15T06:12:23;18.53;;;11.20;;
4375;SDS011;2202;50.866;12.750;2023-02-15T06:14:50;17.87;;;11.73;;
4375;SDS011;2202;50.866;12.750;2023-02-15T06:17:18;23.87;;;12.83;;
4375;SDS011;2202;50.866;12.750;2023-02-15T06:19:46;22.50;;;11.97;;
4375;SDS011;2202;50.866;12.750;2023-02-15T06:22:13;21.80;;;13.27;;
4375;SDS011;2202;50.866;12.750;2023-02-15T06:24:40;18.87;;;12.47;;
4375;SDS011;2202;50.866;12.750;2023-02-15T06:27:07;15.80;;;10.50;;
4375;SDS011;2202;50.866;12.750;2023-02-15T06:29:35;15.63;;;10.07;;
4375;SDS011;2202;50.866;12.750;2023-02-15T06:32:02;17.83;;;9.30;;
4375;SDS011;2202;50.866;12.750;2023-02-15T06:34:30;14.83;;;9.03;;
4375;SDS011;2202;50.866;12.750;2023-02-15T06:36:57;12.63;;;8.87;;
4375;SDS011;2202;50.866;12.750;2023-02-15T06:39:24;16.03;;;9.20;;
4375;SDS011;2202;50.866;12.750;2023-02-15T06:41:51;12.20;;;8.67;;
4375;SDS011;2202;50.866;12.750;2023-02-15T06:44:18;13.33;;;7.37;;
4375;SDS011;2202;50.866;12.750;2023-02-15T06:46:45;18.40;;;10.67;;
4375;SDS011;2202;50.866;12.750;2023-02-15T06:49:12;15.30;;;9.87;;
4375;SDS011;2202;50.866;12.750;2023-02-15T06:51:40;13.23;;;9.30;;
4375;SDS011;2202;50.866;12.750;2023-02-15T06:54:07;13.60;;;8.30;;
4375;SDS011;2202;50.866;12.750;2023-02-15T06:56:34;18.93;;;9.20;;
4375;SDS011;2202;50.866;12.750;2023-02-15T06:59:01;13.77;;;8.70;;
4375;SDS011;2202;50.866;12.750;2023-02-15T07:01:28;14.03;;;8.33;;
4375;SDS011;2202;50.866;12.750;2023-02-15T07:03:54;13.00;;;8.00;;
4375;SDS011;2202;50.866;12.750;2023-02-15T07:06:21;15.70;;;8.00;;
4375;SDS011;2202;50.866;12.750;2023-02-15T07:08:49;16.20;;;9.10;;
4375;SDS011;2202;50.866;12.750;2023-02-15T07:11:16;15.97;;;9.10;;
4375;SDS011;2202;50.866;12.750;2023-02-15T07:14:01;19.40;;;10.93;;
4375;SDS011;2202;50.866;12.750;2023-02-15T07:16:27;33.20;;;17.97;;
4375;SDS011;2202;50.866;12.750;2023-02-15T07:18:54;43.43;;;22.20;;
4375;SDS011;2202;50.866;12.750;2023-02-15T07:21:21;41.40;;;22.40;;
4375;SDS011;2202;50.866;12.750;2023-02-15T07:23:49;37.87;;;20.53;;
4375;SDS011;2202;50.866;12.750;2023-02-15T07:26:16;34.90;;;18.70;;
4375;SDS011;2202;50.866;12.750;2023-02-15T07:28:43;32.23;;;17.67;;
4375;SDS011;2202;50.866;12.750;2023-02-15T07:31:10;28.73;;;16.30;;
4375;SDS011;2202;50.866;12.750;2023-02-15T07:33:37;30.70;;;16.70;;
4375;SDS011;2202;50.866;12.750;2023-02-15T07:36:04;36.43;;;18.90;;
4375;SDS011;2202;50.866;12.750;2023-02-15T07:38:32;39.77;;;19.67;;
4375;SDS011;2202;50.866;12.750;2023-02-15T07:41:01;30.00;;;17.27;;
4375;SDS011;2202;50.866;12.750;2023-02-15T07:43:30;33.47;;;16.57;;
4375;SDS011;2202;50.866;12.750;2023-02-15T07:45:59;30.47;;;15.57;;
4375;SDS011;2202;50.866;12.750;2023-02-15T07:48:26;29.90;;;15.53;;
4375;SDS011;2202;50.866;12.750;2023-02-15T07:50:53;53.10;;;22.20;;
4375;SDS011;2202;50.866;12.750;2023-02-15T07:53:20;70.27;;;26.37;;
4375;SDS011;2202;50.866;12.750;2023-02-15T07:55:47;48.57;;;22.43;;
4375;SDS011;2202;50.866;12.750;2023-02-15T07:58:15;43.70;;;23.40;;
4375;SDS011;2202;50.866;12.750;2023-02-15T08:00:42;61.67;;;26.47;;
4375;SDS011;2202;50.866;12.750;2023-02-15T08:03:26;61.03;;;25.70;;
4375;SDS011;2202;50.866;12.750;2023-02-15T08:05:55;38.63;;;20.10;;
4375;SDS011;2202;50.866;12.750;2023-02-15T08:08:23;39.57;;;18.30;;
4375;SDS011;2202;50.866;12.750;2023-02-15T08:10:57;23.63;;;16.20;;
4375;SDS011;2202;50.866;12.750;2023-02-15T08:13:44;27.53;;;17.00;;
4375;SDS011;2202;50.866;12.750;2023-02-15T08:16:23;16.73;;;12.50;;
4375;SDS011;2202;50.866;12.750;2023-02-15T08:18:50;8.10;;;7.20;;
4375;SDS011;2202;50.866;12.750;2023-02-15T08:21:17;7.20;;;3.70;;
4375;SDS011;2202;50.866;12.750;2023-02-15T08:23:45;9.20;;;3.80;;
4375;SDS011;2202;50.866;12.750;2023-02-15T08:26:12;3.33;;;2.83;;
4375;SDS011;2202;50.866;12.750;2023-02-15T08:28:40;4.43;;;2.33;;
4375;SDS011;2202;50.866;12.750;2023-02-15T08:31:09;2.93;;;2.50;;
4375;SDS011;2202;50.866;12.750;2023-02-15T08:33:37;2.53;;;1.60;;
4375;SDS011;2202;50.866;12.750;2023-02-15T08:36:07;1.93;;;1.70;;
4375;SDS011;2202;50.866;12.750;2023-02-15T08:38:36;2.37;;;2.17;;
4375;SDS011;2202;50.866;12.750;2023-02-15T08:41:09;3.10;;;1.97;;
4375;SDS011;2202;50.866;12.750;2023-02-15T08:43:37;2.43;;;1.90;;
4375;SDS011;2202;50.866;12.750;2023-02-15T08:46:04;2.63;;;1.30;;
4375;SDS011;2202;50.866;12.750;2023-02-15T08:48:33;1.73;;;1.57;;
4375;SDS011;2202;50.866;12.750;2023-02-15T08:51:03;2.87;;;2.20;;
4375;SDS011;2202;50.866;12.750;2023-02-15T08:53:32;1.93;;;1.73;;
4375;SDS011;2202;50.866;12.750;2023-02-15T08:55:59;1.83;;;1.60;;
4375;SDS011;2202;50.866;12.750;2023-02-15T08:58:26;2.33;;;1.90;;
4375;SDS011;2202;50.866;12.750;2023-02-15T09:00:55;2.23;;;1.57;;
4375;SDS011;2202;50.866;12.750;2023-02-15T09:03:22;1.90;;;1.77;;
4375;SDS011;2202;50.866;12.750;2023-02-15T09:05:53;1.60;;;1.40;;
4375;SDS011;2202;50.866;12.750;2023-02-15T09:08:23;2.40;;;1.70;;
4375;SDS011;2202;50.866;12.750;2023-02-15T09:10:50;4.30;;;3.90;;
4375;SDS011;2202;50.866;12.750;2023-02-15T09:13:18;7.63;;;4.63;;
4375;SDS011;2202;50.866;12.750;2023-02-15T09:15:46;3.27;;;2.27;;
4375;SDS011;2202;50.866;12.750;2023-02-15T09:18:12;2.53;;;2.07;;
4375;SDS011;2202;50.866;12.750;2023-02-15T09:20:42;2.73;;;1.90;;
4375;SDS011;2202;50.866;12.750;2023-02-15T09:23:10;2.50;;;2.00;;
4375;SDS011;2202;50.866;12.750;2023-02-15T09:25:37;2.40;;;2.13;;
4375;SDS011;2202;50.866;12.750;2023-02-15T09:28:04;4.20;;;3.47;;
4375;SDS011;2202;50.866;12.750;2023-02-15T09:30:31;3.03;;;2.77;;
4375;SDS011;2202;50.866;12.750;2023-02-15T09:32:58;6.13;;;2.20;;
4375;SDS011;2202;50.866;12.750;2023-02-15T09:35:25;2.27;;;2.07;;
4375;SDS011;2202;50.866;12.750;2023-02-15T09:37:51;3.17;;;2.60;;
4375;SDS011;2202;50.866;12.750;2023-02-15T09:40:20;3.47;;;2.80;;
4375;SDS011;2202;50.866;12.750;2023-02-15T09:42:53;3.83;;;2.73;;
4375;SDS011;2202;50.866;12.750;2023-02-15T09:45:33;3.30;;;2.60;;
4375;SDS011;2202;50.866;12.750;2023-02-15T09:48:21;2.47;;;2.13;;
4375;SDS011;2202;50.866;12.750;2023-02-15T09:50:59;3.40;;;2.30;;
4375;SDS011;2202;50.866;12.750;2023-02-15T09:53:46;2.30;;;1.87;;
4375;SDS011;2202;50.866;12.750;2023-02-15T09:56:28;3.17;;;1.83;;
4375;SDS011;2202;50.866;12.750;2023-02-15T09:59:03;3.43;;;2.67;;
4375;SDS011;2202;50.866;12.750;2023-02-15T10:01:38;2.37;;;2.07;;
4375;SDS011;2202;50.866;12.750;2023-02-15T10:04:18;3.93;;;2.60;;
4375;SDS011;2202;50.866;12.750;2023-02-15T10:07:05;2.50;;;1.90;;
4375;SDS011;2202;50.866;12.750;2023-02-15T10:09:52;3.33;;;2.10;;
4375;SDS011;2202;50.866;12.750;2023-02-15T10:12:35;3.17;;;2.23;;
4375;SDS011;2202;50.866;12.750;2023-02-15T10:18:17;5.20;;;2.67;;
4375;SDS011;2202;50.866;12.750;2023-02-15T10:20:58;4.50;;;2.97;;
4375;SDS011;2202;50.866;12.750;2023-02-15T10:23:41;2.97;;;2.70;;
4375;SDS011;2202;50.866;12.750;2023-02-15T10:26:17;3.77;;;2.67;;
4375;SDS011;2202;50.866;12.750;2023-02-15T10:28:48;3.40;;;3.10;;
4375;SDS011;2202;50.866;12.750;2023-02-15T10:31:24;5.00;;;3.43;;
4375;SDS011;2202;50.866;12.750;2023-02-15T10:33:56;4.80;;;3.63;;
4375;SDS011;2202;50.866;12.750;2023-02-15T10:36:42;4.43;;;3.80;;
4375;SDS011;2202;50.866;12.750;2023-02-15T10:39:44;8.37;;;6.60;;
4375;SDS011;2202;50.866;12.750;2023-02-15T10:42:20;5.10;;;4.23;;
4375;SDS011;2202;50.866;12.750;2023-02-15T10:45:06;6.67;;;4.30;;
4375;SDS011;2202;50.866;12.750;2023-02-15T10:47:42;5.90;;;4.00;;
4375;SDS011;2202;50.866;12.750;2023-02-15T10:50:27;5.97;;;4.70;;
4375;SDS011;2202;50.866;12.750;2023-02-15T10:53:12;5.33;;;3.33;;
4375;SDS011;2202;50.866;12.750;2023-02-15T10:55:50;5.13;;;3.97;;
4375;SDS011;2202;50.866;12.750;2023-02-15T10:58:25;4.67;;;4.20;;
4375;SDS011;2202;50.866;12.750;2023-02-15T11:01:03;5.90;;;5.30;;
4375;SDS011;2202;50.866;12.750;2023-02-15T11:03:40;5.43;;;4.93;;
4375;SDS011;2202;50.866;12.750;2023-02-15T11:06:21;6.80;;;5.43;;
4375;SDS011;2202;50.866;12.750;2023-02-15T11:08:50;6.97;;;4.53;;
4375;SDS011;2202;50.866;12.750;2023-02-15T11:11:21;7.27;;;5.30;;
4375;SDS011;2202;50.866;12.750;2023-02-15T11:13:52;5.80;;;5.20;;
4375;SDS011;2202;50.866;12.750;2023-02-15T11:16:28;6.73;;;5.30;;
4375;SDS011;2202;50.866;12.750;2023-02-15T11:19:00;6.50;;;5.10;;
4375;SDS011;2202;50.866;12.750;2023-02-15T11:21:33;5.30;;;4.80;;
4375;SDS011;2202;50.866;12.750;2023-02-15T11:24:07;5.47;;;4.97;;
4375;SDS011;2202;50.866;12.750;2023-02-15T11:26:37;4.77;;;4.27;;
4375;SDS011;2202;50.866;12.750;2023-02-15T11:29:06;4.67;;;4.23;;
4375;SDS011;2202;50.866;12.750;2023-02-15T11:31:42;4.77;;;4.27;;
4375;SDS011;2202;50.866;12.750;2023-02-15T11:34:12;4.47;;;3.90;;
4375;SDS011;2202;50.866;12.750;2023-02-15T11:36:45;4.13;;;3.40;;
4375;SDS011;2202;50.866;12.750;2023-02-15T11:39:16;4.93;;;4.47;;
4375;SDS011;2202;50.866;12.750;2023-02-15T11:41:45;5.90;;;4.17;;
4375;SDS011;2202;50.866;12.750;2023-02-15T11:44:17;4.37;;;3.97;;
4375;SDS011;2202;50.866;12.750;2023-02-15T11:46:49;4.03;;;3.40;;
4375;SDS011;2202;50.866;12.750;2023-02-15T11:49:20;4.80;;;3.37;;
4375;SDS011;2202;50.866;12.750;2023-02-15T11:51:50;4.67;;;3.30;;
4375;SDS011;2202;50.866;12.750;2023-02-15T11:54:18;4.57;;;3.77;;
4375;SDS011;2202;50.866;12.750;2023-02-15T11:56:47;7.13;;;3.10;;
4375;SDS011;2202;50.866;12.750;2023-02-15T11:59:16;3.33;;;2.90;;
4375;SDS011;2202;50.866;12.750;2023-02-15T12:01:52;2.90;;;2.60;;
4375;SDS011;2202;50.866;12.750;2023-02-15T12:04:20;3.40;;;2.90;;
4375;SDS011;2202;50.866;12.750;2023-02-15T12:06:51;3.37;;;3.07;;
4375;SDS011;2202;50.866;12.750;2023-02-15T12:09:24;3.00;;;2.70;;
4375;SDS011;2202;50.866;12.750;2023-02-15T12:14:47;2.63;;;2.33;;
4375;SDS011;2202;50.866;12.750;2023-02-15T12:17:17;4.80;;;3.53;;
4375;SDS011;2202;50.866;12.750;2023-02-15T12:19:46;6.50;;;4.23;;
4375;SDS011;2202;50.866;12.750;2023-02-15T12:22:18;3.10;;;2.40;;
4375;SDS011;2202;50.866;12.750;2023-02-15T12:24:49;3.10;;;2.80;;
4375;SDS011;2202;50.866;12.750;2023-02-15T12:27:19;5.20;;;2.90;;
4375;SDS011;2202;50.866;12.750;2023-02-15T12:29:48;9.30;;;2.90;;
4375;SDS011;2202;50.866;12.750;2023-02-15T12:32:19;3.57;;;2.87;;
4375;SDS011;2202;50.866;12.750;2023-02-15T12:34:50;4.60;;;2.60;;
4375;SDS011;2202;50.866;12.750;2023-02-15T12:37:19;2.37;;;2.10;;
4375;SDS011;2202;50.866;12.750;2023-02-15T12:39:51;2.60;;;2.13;;
4375;SDS011;2202;50.866;12.750;2023-02-15T12:42:19;2.73;;;2.33;;
4375;SDS011;2202;50.866;12.750;2023-02-15T12:45:00;3.40;;;2.37;;
4375;SDS011;2202;50.866;12.750;2023-02-15T12:47:29;3.33;;;2.60;;
4375;SDS011;2202;50.866;12.750;2023-02-15T12:50:04;2.77;;;2.53;;
4375;SDS011;2202;50.866;12.750;2023-02-15T12:52:42;3.30;;;2.90;;
4375;SDS011;2202;50.866;12.750;2023-02-15T12:55:17;2.60;;;2.40;;
4375;SDS011;2202;50.866;12.750;2023-02-15T12:57:47;2.20;;;1.97;;
4375;SDS011;2202;50.866;12.750;2023-02-15T13:00:25;4.93;;;1.87;;
4375;SDS011;2202;50.866;12.750;2023-02-15T13:02:58;3.30;;;2.20;;
4375;SDS011;2202;50.866;12.750;2023-02-15T13:05:28;2.10;;;1.87;;
4375;SDS011;2202;50.866;12.750;2023-02-15T13:07:58;3.03;;;2.40;;
4375;SDS011;2202;50.866;12.750;2023-02-15T13:10:28;2.50;;;2.20;;
4375;SDS011;2202;50.866;12.750;2023-02-15T13:12:59;6.03;;;2.90;;
4375;SDS011;2202;50.866;12.750;2023-02-15T13:15:29;4.20;;;2.10;;
4375;SDS011;2202;50.866;12.750;2023-02-15T13:18:02;2.33;;;2.03;;
4375;SDS011;2202;50.866;12.750;2023-02-15T13:20:30;3.20;;;1.93;;
4375;SDS011;2202;50.866;12.750;2023-02-15T13:23:02;3.00;;;1.90;;
4375;SDS011;2202;50.866;12.750;2023-02-15T13:25:33;2.47;;;2.00;;
4375;SDS011;2202;50.866;12.750;2023-02-15T13:28:10;2.00;;;1.80;;
4375;SDS011;2202;50.866;12.750;2023-02-15T13:30:42;3.40;;;2.17;;
4375;SDS011;2202;50.866;12.750;2023-02-15T13:33:14;3.37;;;2.30;;
4375;SDS011;2202;50.866;12.750;2023-02-15T13:35:57;2.97;;;2.43;;
4375;SDS011;2202;50.866;12.750;2023-02-15T13:41:25;2.60;;;2.00;;
4375;SDS011;2202;50.866;12.750;2023-02-15T13:43:59;3.17;;;2.47;;
4375;SDS011;2202;50.866;12.750;2023-02-15T13:46:40;3.07;;;2.30;;
4375;SDS011;2202;50.866;12.750;2023-02-15T13:49:21;3.10;;;2.33;;
4375;SDS011;2202;50.866;12.750;2023-02-15T13:52:04;2.37;;;1.90;;
4375;SDS011;2202;50.866;12.750;2023-02-15T13:54:45;3.13;;;2.50;;
4375;SDS011;2202;50.866;12.750;2023-02-15T13:57:36;3.40;;;2.20;;
4375;SDS011;2202;50.866;12.750;2023-02-15T14:00:15;3.63;;;2.90;;
4375;SDS011;2202;50.866;12.750;2023-02-15T14:03:06;3.20;;;2.80;;
4375;SDS011;2202;50.866;12.750;2023-02-15T14:05:59;4.83;;;2.30;;
4375;SDS011;2202;50.866;12.750;2023-02-15T14:08:45;2.50;;;2.30;;
4375;SDS011;2202;50.866;12.750;2023-02-15T14:11:26;2.40;;;2.20;;
4375;SDS011;2202;50.866;12.750;2023-02-15T14:16:59;3.20;;;2.40;;
4375;SDS011;2202;50.866;12.750;2023-02-15T14:19:35;6.37;;;2.20;;
4375;SDS011;2202;50.866;12.750;2023-02-15T14:22:10;3.13;;;1.90;;
4375;SDS011;2202;50.866;12.750;2023-02-15T14:24:46;3.10;;;2.43;;
4375;SDS011;2202;50.866;12.750;2023-02-15T14:27:22;3.80;;;2.60;;
4375;SDS011;2202;50.866;12.750;2023-02-15T14:29:54;3.63;;;2.23;;
4375;SDS011;2202;50.866;12.750;2023-02-15T14:32:25;3.00;;;2.70;;
4375;SDS011;2202;50.866;12.750;2023-02-15T14:34:57;4.77;;;2.90;;
4375;SDS011;2202;50.866;12.750;2023-02-15T14:37:29;2.67;;;2.30;;
4375;SDS011;2202;50.866;12.750;2023-02-15T14:40:08;5.17;;;2.80;;
4375;SDS011;2202;50.866;12.750;2023-02-15T14:43:01;3.30;;;2.40;;
4375;SDS011;2202;50.866;12.750;2023-02-15T14:45:35;2.60;;;2.20;;
4375;SDS011;2202;50.866;12.750;2023-02-15T14:48:09;6.30;;;2.87;;
4375;SDS011;2202;50.866;12.750;2023-02-15T14:50:45;2.80;;;2.50;;
4375;SDS011;2202;50.866;12.750;2023-02-15T14:53:22;5.43;;;3.30;;
4375;SDS011;2202;50.866;12.750;2023-02-15T14:56:05;4.37;;;2.97;;
4375;SDS011;2202;50.866;12.750;2023-02-15T14:58:33;5.90;;;2.87;;
4375;SDS011;2202;50.866;12.750;2023-02-15T15:01:03;4.97;;;3.00;;
4375;SDS011;2202;50.866;12.750;2023-02-15T15:03:32;3.83;;;3.30;;
4375;SDS011;2202;50.866;12.750;2023-02-15T15:06:01;3.60;;;3.23;;
4375;SDS011;2202;50.866;12.750;2023-02-15T15:08:31;3.93;;;3.30;;
4375;SDS011;2202;50.866;12.750;2023-02-15T15:14:07;5.13;;;4.07;;
4375;SDS011;2202;50.866;12.750;2023-02-15T15:16:47;3.40;;;2.83;;
4375;SDS011;2202;50.866;12.750;2023-02-15T15:22:33;3.30;;;2.70;;
4375;SDS011;2202;50.866;12.750;2023-02-15T15:25:03;4.30;;;2.67;;
4375;SDS011;2202;50.866;12.750;2023-02-15T15:33:20;4.50;;;3.50;;
4375;SDS011;2202;50.866;12.750;2023-02-15T15:36:08;6.20;;;3.17;;
4375;SDS011;2202;50.866;12.750;2023-02-15T15:38:55;4.50;;;3.43;;
4375;SDS011;2202;50.866;12.750;2023-02-15T15:41:35;3.40;;;2.43;;
4375;SDS011;2202;50.866;12.750;2023-02-15T15:46:58;4.73;;;2.90;;
4375;SDS011;2202;50.866;12.750;2023-02-15T15:49:46;6.83;;;3.43;;
4375;SDS011;2202;50.866;12.750;2023-02-15T15:52:14;6.30;;;3.10;;